Quick Links (Output Below):   Max & Min Temps   /   Climate Reports   /   Zone Forecasts
River Forecasts   /   Forestry Forecasts   /   Aviation Forecasts   /   Radars   /   Features

Terminal Aerodrome Forecast (Harrison)

Pick a Site:
Arkadelphia | El Dorado | Fayetteville | Fort Smith | Harrison | Highfill | Hot Springs | Jonesboro
Little Rock | Monticello | Mountain Home | Pine Bluff | Texarkana
 Forecast 

KHRO 062320Z 0700/0724 27005KT P6SM SKC
     FM071300 21008G15KT P6SM SKC=


 Latest METARs (Observations) 
How to Decode METARs
00Z KHRO 062353Z AUTO 32003KT 10SM CLR 23/09 A3002 RMK AO2 SLP162
         T02280089 10250 20222 56015
         
***** Today's Observations (Above) *****


23Z KHRO 062253Z AUTO 27005KT 10SM CLR 24/07 A3004 RMK AO2 SLP167
         T02390072
         
22Z KHRO 062153Z AUTO VRB04KT 10SM CLR 25/07 A3005 RMK AO2 SLP169
         T02500067
         
21Z KHRO 062053Z AUTO 31003KT 10SM CLR 24/07 A3007 RMK AO2 SLP176
         T02390067 58018
         
20Z KHRO 061953Z AUTO 00000KT 10SM CLR 24/06 A3010 RMK AO2 SLP184
         T02390056
         
19Z KHRO 061853Z AUTO 32007KT 10SM CLR 23/06 A3011 RMK AO2 SLP190
         T02330061
         
18Z KHRO 061753Z AUTO 34005KT 10SM CLR 22/04 A3013 RMK AO2 SLP195
         T02220044 10228 20072 58000
         
17Z KHRO 061653Z AUTO VRB05KT 10SM CLR 22/02 A3015 RMK AO2 SLP202
         T02170022
         
16Z KHRO 061553Z AUTO 33004KT 10SM CLR 20/03 A3013 RMK AO2 SLP197
         T02000033
         
15Z KHRO 061453Z AUTO 16004KT 10SM CLR 18/07 A3013 RMK AO2 SLP195
         T01830067 50005
         
***** Yesterday's Observations (Above) *****


Back to Main Page
http://www.srh.noaa.gov/lzk/qfcst.php

USA.gov is the U.S. government's official web portal to all federal, state and local government web resources and services.